Latest Weather Observations for Clare

IDS60801

Issued at 6:21 pm CST Wednesday 19 September 2018 (issued every 10 minutes, with the page automatically refreshed every 10 minutes)

About weather observations | Map of weather stations | Latest weather observations for SA | Other Formats
Station Details ID: 021131 Name: CLARE HIGH SCHOOL Lat: -33.82 Lon: 138.59 Height: 395.0 m
Data from the previous 72 hours. | See also: Recent months at Clare
Date/Time
CST
Temp
°C
App
Temp
°C
Dew
Point
°C
Rel
Hum
%
Delta-T
°C
Wind Press
QNH
hPa
Press
MSL
hPa
Rain since
9am
mm
Dir  Spd
km/h
Gust
km/h
Spd
kts
Gust
kts
19/06:00pm 10.8 5.8 3.4 60 3.3 W 19 30 10 16 1019.0 1019.1 0.6
19/05:30pm 11.5 7.1 2.8 55 3.9 WSW 15 26 8 14 1018.6 - 0.6
19/05:00pm 11.5 6.6 2.3 53 4.0 W 17 30 9 16 1018.3 - 0.6
19/04:30pm 13.0 7.3 0.7 43 5.3 WSW 20 32 11 17 1018.1 - 0.6
19/04:00pm 12.8 7.6 2.4 49 4.6 W 19 35 10 19 1018.1 - 0.6
19/03:30pm 11.4 6.7 2.9 56 3.8 W 17 30 9 16 1018.0 - 0.6
19/03:00pm 9.5 6.5 6.2 80 1.6 S 11 22 6 12 1018.1 1018.1 0.4
19/02:30pm 11.7 6.5 2.5 53 4.1 W 19 30 10 16 1018.1 - 0.2
19/02:00pm 12.1 7.1 4.8 61 3.4 W 20 33 11 18 1018.1 - 0.2
19/01:30pm 10.5 7.0 5.5 71 2.3 W 13 22 7 12 1018.3 - 0.2
19/01:00pm 12.2 7.4 4.4 59 3.6 WSW 19 32 10 17 1018.2 - 0.0
19/12:30pm 12.1 6.9 2.3 51 4.3 W 19 28 10 15 1018.2 - 0.0
19/12:00pm 12.4 6.7 2.8 52 4.3 WSW 22 28 12 15 1018.4 1018.5 0.0
19/11:30am 11.3 6.5 4.5 63 3.1 W 19 33 10 18 1018.7 - 0.0
19/11:00am 11.0 5.9 3.1 58 3.5 WSW 19 32 10 17 1018.7 - 0.0
19/10:30am 10.5 7.3 4.9 68 2.6 WSW 11 20 6 11 1018.8 - 0.0
19/10:00am 8.2 3.6 5.7 84 1.2 WSW 19 30 10 16 1019.0 - 0.0
19/09:30am 9.4 6.0 4.2 70 2.3 WSW 11 20 6 11 1018.7 - 0.0
19/09:00am 8.6 4.4 4.0 73 2.0 WSW 15 20 8 11 1018.7 1018.8 0.8
19/08:30am 8.0 4.6 4.2 77 1.7 W 11 17 6 9 1018.4 - 0.8
19/08:00am 7.5 4.7 5.3 86 1.0 W 9 17 5 9 1018.1 - 0.8
19/07:30am 5.8 4.7 5.2 96 0.3 CALM 0 0 0 0 1017.6 - 0.8
19/07:00am 4.4 2.4 4.3 99 0.0 E 4 6 2 3 1017.2 - 0.8
19/06:30am 3.4 2.0 3.3 99 0.0 CALM 0 0 0 0 1017.0 - 0.8
19/06:00am 2.9 1.4 2.8 99 0.0 CALM 0 0 0 0 1016.7 1016.8 0.6
19/05:30am 2.9 1.4 2.8 99 0.0 CALM 0 0 0 0 1016.4 - 0.6
19/05:00am 2.7 1.1 2.6 99 0.0 CALM 0 0 0 0 1016.0 - 0.6
19/04:30am 3.2 1.7 3.1 99 0.0 CALM 0 0 0 0 1015.9 - 0.6
19/04:00am 2.8 1.2 2.4 97 0.2 CALM 0 7 0 4 1015.7 - 0.6
19/03:30am 3.3 1.7 2.6 95 0.3 CALM 0 6 0 3 1015.5 - 0.6
19/03:00am 4.3 2.1 3.3 93 0.4 WNW 4 7 2 4 1015.5 1015.5 0.6
19/02:30am 5.1 2.5 4.2 94 0.4 W 7 15 4 8 1015.5 - 0.6
19/02:00am 4.9 2.3 4.2 95 0.3 W 7 11 4 6 1015.7 - 0.6
19/01:30am 4.7 2.0 3.7 93 0.4 W 7 13 4 7 1015.9 - 0.6
19/01:00am 5.2 2.2 3.9 91 0.6 W 9 17 5 9 1016.1 - 0.6
19/12:30am 5.7 2.7 4.0 89 0.7 W 9 15 5 8 1016.3 - 0.6
19/12:00am 5.9 2.8 3.6 85 1.0 WSW 9 15 5 8 1016.2 1016.3 0.6
 
Date/Time
CST
Temp
°C
App
Temp
°C
Dew
Point
°C
Rel
Hum
%
Delta-T
°C
Wind Press
QNH
hPa
Press
MSL
hPa
Rain since
9am
mm
Dir  Spd
km/h
Gust
km/h
Spd
kts
Gust
kts
18/11:30pm 6.1 2.6 3.6 84 1.1 W 11 22 6 12 1016.1 - 0.6
18/11:00pm 6.0 2.1 3.5 84 1.1 W 13 20 7 11 1016.3 - 0.6
18/10:30pm 6.4 2.9 3.7 83 1.2 W 11 19 6 10 1016.3 - 0.6
18/10:00pm 6.2 2.8 4.2 87 0.9 WSW 11 15 6 8 1016.2 - 0.6
18/09:30pm 7.1 3.4 4.4 83 1.2 SW 13 20 7 11 1016.1 - 0.6
18/09:00pm 7.5 3.1 4.6 82 1.3 WSW 17 30 9 16 1015.9 1015.9 0.6
18/08:30pm 7.5 3.8 4.3 80 1.4 WSW 13 20 7 11 1015.5 - 0.6
18/08:00pm 8.0 4.2 4.0 76 1.8 WSW 13 22 7 12 1015.4 - 0.6
18/07:30pm 8.6 4.5 4.2 74 2.0 WSW 15 24 8 13 1014.8 - 0.6
18/07:00pm 9.2 5.1 4.2 71 2.3 WSW 15 24 8 13 1014.5 - 0.6
18/06:30pm 9.2 5.1 4.6 73 2.1 WSW 15 28 8 15 1014.3 - 0.6
18/06:00pm 9.5 5.3 5.5 76 1.9 WSW 17 26 9 14 1013.9 1013.9 0.6
18/05:30pm 10.9 6.8 6.3 73 2.2 WSW 17 26 9 14 1013.5 - 0.2
18/05:00pm 12.2 7.4 5.6 64 3.1 WSW 20 32 11 17 1013.0 - 0.2
18/04:30pm 11.1 7.1 6.5 73 2.2 WNW 17 24 9 13 1012.8 - 0.2
18/04:00pm 10.7 6.6 6.3 74 2.1 W 17 24 9 13 1012.8 - 0.2
18/03:30pm 11.2 6.7 5.9 70 2.5 W 19 33 10 18 1012.6 - 0.2
18/03:00pm 12.0 6.9 5.9 66 2.9 W 22 39 12 21 1012.3 1012.4 0.2
18/02:30pm 12.3 8.1 5.7 64 3.2 W 17 26 9 14 1012.7 - 0.2
18/02:00pm 12.0 8.4 5.2 63 3.2 W 13 22 7 12 1012.9 - 0.2
18/01:30pm 12.6 7.9 5.1 60 3.5 WNW 19 30 10 16 1012.8 - 0.2
18/01:00pm 11.9 8.6 6.6 70 2.6 W 13 20 7 11 1012.8 - 0.2
18/12:30pm 11.1 6.7 4.6 64 3.0 W 17 26 9 14 1013.4 - 0.0
18/12:00pm 12.1 6.7 1.4 48 4.6 WNW 19 30 10 16 1013.5 1013.5 0.0
18/11:30am 12.5 7.4 4.2 57 3.8 WSW 20 33 11 18 1013.3 - 0.0
18/11:00am 12.4 8.1 5.3 62 3.4 W 17 28 9 15 1013.2 - 0.0
18/10:30am 11.6 7.5 7.7 77 1.9 W 19 30 10 16 1013.8 - 0.0
18/10:00am 12.1 8.5 8.2 77 2.0 W 17 30 9 16 1013.3 - 0.0
18/09:30am 11.5 7.8 8.0 79 1.7 W 17 24 9 13 1013.4 - 0.0
18/09:00am 11.1 7.4 8.1 82 1.5 WNW 17 28 9 15 1013.7 1013.7 0.0
18/08:30am 10.9 7.3 8.3 84 1.3 WNW 17 28 9 15 1013.4 - 0.0
18/08:00am 10.3 7.3 5.9 74 2.1 NW 11 15 6 8 1013.3 - 0.0
18/07:30am 9.7 7.1 6.1 78 1.7 NW 9 17 5 9 1013.1 - 0.0
18/07:00am 9.8 7.5 7.4 85 1.2 NW 9 13 5 7 1013.0 - 0.0
18/06:30am 9.7 6.4 6.4 80 1.6 WNW 13 17 7 9 1013.0 - 0.0
18/06:00am 9.8 6.5 4.6 70 2.4 W 11 20 6 11 1012.6 1012.6 0.0
18/05:30am 9.3 4.8 0.0 52 3.8 W 13 20 7 11 1012.0 - 0.0
18/05:00am 9.4 3.7 -3.5 40 4.9 WNW 17 24 9 13 1012.0 - 0.0
18/04:30am 9.0 3.9 -5.6 35 5.2 W 13 19 7 10 1011.5 - 0.0
18/04:00am 10.4 3.8 -6.8 29 6.1 W 20 32 11 17 1011.0 - 0.0
18/03:30am 9.8 5.8 -6.1 32 5.7 N 7 9 4 5 1009.8 - 0.0
18/03:00am 9.8 5.8 -6.1 32 5.7 NNE 7 11 4 6 1010.1 1010.1 0.0
18/02:30am 10.4 5.6 -6.0 31 5.9 NNE 11 15 6 8 1010.3 - 0.0
18/02:00am 10.9 6.2 -5.5 31 6.0 NNE 11 19 6 10 1010.6 - 0.0
18/01:30am 9.8 5.8 -5.7 33 5.6 N 7 13 4 7 1011.1 - 0.0
18/01:00am 9.6 5.8 -5.5 34 5.4 N 6 9 3 5 1011.2 - 0.0
18/12:30am 8.9 5.0 -5.0 37 5.0 N 7 11 4 6 1011.2 - 0.0
18/12:00am 9.4 5.7 -4.9 36 5.2 NNW 6 9 3 5 1011.5 1011.5 0.0
 
Date/Time
CST
Temp
°C
App
Temp
°C
Dew
Point
°C
Rel
Hum
%
Delta-T
°C
Wind Press
QNH
hPa
Press
MSL
hPa
Rain since
9am
mm
Dir  Spd
km/h
Gust
km/h
Spd
kts
Gust
kts
17/11:30pm 10.1 6.4 -4.6 35 5.4 N 6 11 3 6 1011.9 - 0.0
17/11:00pm 10.1 6.2 -4.6 35 5.4 N 7 11 4 6 1012.3 - 0.0
17/10:30pm 9.8 6.1 -4.2 37 5.2 NNW 6 9 3 5 1012.7 - 0.0
17/10:00pm 10.3 6.1 -4.1 36 5.4 NNW 9 15 5 8 1013.0 - 0.0
17/09:30pm 10.6 6.0 -3.8 36 5.5 N 11 17 6 9 1013.2 - 0.0
17/09:00pm 10.6 6.4 -3.8 36 5.5 N 9 13 5 7 1013.2 1013.2 0.0
17/08:30pm 10.8 7.1 -3.3 37 5.4 NNW 7 13 4 7 1013.2 - 0.0
17/08:00pm 11.2 7.5 -3.3 36 5.6 NNW 7 11 4 6 1013.3 - 0.0
17/07:30pm 12.8 8.6 -3.5 32 6.4 N 9 13 5 7 1013.2 - 0.0
17/07:00pm 12.7 9.2 -2.7 34 6.1 N 6 9 3 5 1013.2 - 0.0
17/06:30pm 13.6 9.9 -2.8 32 6.6 WNW 7 9 4 5 1013.1 - 0.0
17/06:00pm 14.9 11.6 -1.6 32 6.9 NNW 6 9 3 5 1012.8 1012.8 0.0
17/05:30pm 16.3 12.0 -1.3 30 7.5 NNW 11 17 6 9 1012.4 - 0.0
17/05:00pm 17.3 12.1 -2.4 26 8.3 N 15 28 8 15 1012.4 - 0.0
17/04:30pm 18.0 11.6 -1.8 26 8.5 NNW 22 35 12 19 1012.6 - 0.0
17/04:00pm 18.5 11.8 -1.3 26 8.6 NNW 24 37 13 20 1012.8 - 0.0
17/03:30pm 18.5 11.8 -0.8 27 8.5 NNW 24 37 13 20 1013.1 - 0.0
17/03:00pm 18.4 12.3 0.1 29 8.2 NNW 22 28 12 15 1013.2 1013.2 0.0
17/02:30pm 18.6 12.1 0.2 29 8.2 N 24 35 13 19 1013.7 - 0.0
17/02:00pm 18.1 11.4 -1.2 27 8.4 N 24 39 13 21 1014.2 - 0.0
17/01:30pm 17.8 10.8 -0.5 29 8.0 N 26 43 14 23 1014.8 - 0.0
17/01:00pm 17.2 9.8 -1.0 29 7.9 NNW 28 44 15 24 1015.5 - 0.0
17/12:30pm 16.4 8.5 -1.7 29 7.6 NNW 30 41 16 22 1016.2 - 0.0
17/12:00pm 16.7 10.1 -0.5 31 7.5 N 24 39 13 21 1016.9 1017.0 0.0
17/11:30am 15.8 8.4 -0.8 32 7.1 NNW 28 41 15 22 1017.7 - 0.0
17/11:04am 15.2 7.8 -0.9 33 6.8 NNW 28 46 15 25 1018.0 - 0.0
17/11:00am 15.3 7.5 -0.9 33 6.9 NNW 30 41 16 22 1018.1 - 0.0
17/10:30am 15.2 7.8 -0.5 34 6.7 NW 28 43 15 23 1018.5 - 0.0
17/10:22am 14.7 7.3 -1.0 34 6.6 NNW 28 46 15 25 1018.6 - 0.0
17/10:00am 14.3 8.5 -0.2 37 6.2 N 20 30 11 16 1018.8 - 0.0
17/09:30am 12.3 8.0 3.0 53 4.2 N 15 24 8 13 1019.3 - 0.0
17/09:00am 10.4 6.4 2.7 59 3.4 N 13 19 7 10 1019.6 1019.7 0.0
17/08:30am 8.7 5.1 2.7 66 2.6 N 11 15 6 8 1019.6 - 0.0
17/08:00am 6.5 3.5 2.2 74 1.8 NNW 7 9 4 5 1019.7 - 0.0
17/07:30am 5.5 2.7 2.0 78 1.4 N 6 7 3 4 1019.7 - 0.0
17/07:00am 4.7 1.8 1.7 81 1.2 NE 6 9 3 5 1019.6 - 0.0
17/06:30am 2.8 -0.7 1.0 88 0.7 NNE 9 15 5 8 1019.5 - 0.0
17/06:00am 2.1 -1.1 0.5 89 0.6 NE 7 9 4 5 1019.4 1019.5 0.0
17/05:30am 2.2 -0.8 2.1 99 0.0 NE 7 11 4 6 1019.5 - 0.0
17/05:00am 0.0 -2.0 -0.1 99 0.0 CALM 0 0 0 0 1019.5 - 0.0
17/04:30am -0.3 -2.3 -0.4 99 0.0 CALM 0 0 0 0 1019.4 - 0.0
17/04:00am 0.4 -1.5 0.3 99 0.0 CALM 0 0 0 0 1019.7 - 0.0
17/03:30am 0.3 -1.7 0.2 99 0.0 CALM 0 0 0 0 1019.5 - 0.0
17/03:00am 0.3 -1.7 0.2 99 0.0 CALM 0 0 0 0 1019.7 1019.8 0.0
17/02:30am 0.6 -1.3 0.5 99 0.0 CALM 0 0 0 0 1020.0 - 0.0
17/02:00am 0.2 -1.8 0.1 99 0.0 CALM 0 0 0 0 1020.2 - 0.0
17/01:30am 0.2 -1.8 0.1 99 0.0 CALM 0 0 0 0 1020.8 - 0.0
17/01:00am 0.8 -1.1 0.7 99 0.0 CALM 0 0 0 0 1021.3 - 0.0
17/12:30am 1.0 -0.8 0.9 99 0.0 CALM 0 0 0 0 1021.4 - 0.0
17/12:00am 1.2 -0.6 0.9 98 0.1 CALM 0 0 0 0 1021.8 1021.9 0.0
 
Date/Time
CST
Temp
°C
App
Temp
°C
Dew
Point
°C
Rel
Hum
%
Delta-T
°C
Wind Press
QNH
hPa
Press
MSL
hPa
Rain since
9am
mm
Dir  Spd
km/h
Gust
km/h
Spd
kts
Gust
kts
16/11:30pm 1.4 -0.4 1.0 97 0.2 CALM 0 0 0 0 1022.1 - 0.0
16/11:00pm 2.0 0.2 1.4 96 0.2 CALM 0 0 0 0 1022.6 - 0.0
16/10:30pm 2.4 0.6 1.5 94 0.4 CALM 0 0 0 0 1023.0 - 0.0
16/10:00pm 3.1 1.5 2.2 94 0.4 CALM 0 0 0 0 1023.1 - 0.0
16/09:30pm 3.5 1.8 2.0 90 0.6 CALM 0 0 0 0 1023.3 - 0.0
16/09:00pm 4.1 2.4 2.1 87 0.8 CALM 0 0 0 0 1023.5 1023.6 0.0
16/08:30pm 5.5 3.9 2.7 82 1.2 CALM 0 0 0 0 1023.4 - 0.0
16/08:00pm 6.6 5.1 3.2 79 1.5 CALM 0 0 0 0 1023.3 - 0.0
16/07:30pm 7.6 6.2 3.6 76 1.8 CALM 0 0 0 0 1023.1 - 0.0
16/07:00pm 8.1 6.0 4.1 76 1.8 WNW 4 9 2 5 1022.9 - 0.0
16/06:30pm 9.0 7.6 3.4 68 2.5 CALM 0 0 0 0 1022.7 - 0.0

Other Formats:

Comma delimited format used in spreadsheet applications
http://www.bom.gov.au/fwo/IDS60801/IDS60801.95667.axf

JavaScript Object Notation format (JSON) in row-major order
http://www.bom.gov.au/fwo/IDS60801/IDS60801.95667.json